Time;durP1;ratioP1;P1;durP2;ratioP2;P2;SDS_P1;SDS_P2;PMS_P1;PMS_P2;Temp;Humidity;BMP_temperature;BMP_pressure;BME280_temperature;BME280_humidity;BME280_pressure;Samples;Min_cycle;Max_cycle;Signal;HPM_P1;HPM_P2
2022/04/11 00:02:15;;;;;;;2.80;2.30;;;;;11.00;101778.00;;;;5057141;28;20231;-83
2022/04/11 00:04:44;;;;;;;3.15;2.28;;;;;11.00;101770.00;;;;5058787;28;20195;-84
2022/04/11 00:07:11;;;;;;;3.15;2.35;;;;;11.00;101776.00;;;;5056330;28;20199;-83
2022/04/11 00:09:38;;;;;;;4.45;2.40;;;;;11.00;101766.00;;;;5056187;28;20249;-84
2022/04/11 00:12:06;;;;;;;3.70;2.42;;;;;11.00;101766.00;;;;5053117;28;20203;-84
2022/04/11 00:14:34;;;;;;;4.32;2.42;;;;;11.00;101769.00;;;;5057273;28;20209;-83
2022/04/11 00:17:01;;;;;;;4.15;2.53;;;;;11.00;101761.00;;;;5059366;28;20190;-83
2022/04/11 00:19:28;;;;;;;3.83;2.80;;;;;11.00;101766.00;;;;5057548;28;20190;-84
2022/04/11 00:21:58;;;;;;;3.00;2.33;;;;;10.90;101759.00;;;;5058695;28;20231;-83
2022/04/11 00:24:25;;;;;;;3.70;2.50;;;;;10.90;101754.00;;;;5058567;28;20211;-83
2022/04/11 00:26:52;;;;;;;2.92;2.45;;;;;10.90;101759.00;;;;5058602;28;20195;-83
2022/04/11 00:29:20;;;;;;;3.30;2.50;;;;;10.90;101756.00;;;;5059521;28;20668;-82
2022/04/11 00:31:47;;;;;;;3.92;2.55;;;;;10.90;101752.00;;;;5057527;28;20199;-84
2022/04/11 00:34:14;;;;;;;4.68;2.80;;;;;10.90;101747.00;;;;5058098;28;20599;-83
2022/04/11 00:36:42;;;;;;;3.08;2.38;;;;;10.90;101741.00;;;;5060047;28;20195;-84
2022/04/11 00:39:10;;;;;;;3.47;2.42;;;;;10.90;101744.00;;;;5056477;28;20657;-84
2022/04/11 00:41:37;;;;;;;4.63;2.75;;;;;10.90;101745.00;;;;5058420;28;20227;-84
2022/04/11 00:44:06;;;;;;;2.40;2.03;;;;;10.90;101740.00;;;;5057768;28;20210;-84
2022/04/11 00:46:34;;;;;;;4.75;2.53;;;;;10.90;101726.00;;;;5054802;28;20295;-83
2022/04/11 00:49:01;;;;;;;3.20;2.53;;;;;10.90;101732.00;;;;5057674;28;20207;-83
2022/04/11 00:51:29;;;;;;;6.65;2.42;;;;;10.90;101733.00;;;;5057865;28;20337;-84
2022/04/11 00:53:59;;;;;;;4.55;2.63;;;;;10.90;101728.00;;;;5059462;28;20276;-83
2022/04/11 00:56:30;;;;;;;7.40;2.67;;;;;10.90;101723.00;;;;5061046;28;20206;-84
2022/04/11 00:59:02;;;;;;;3.35;2.22;;;;;10.90;101728.00;;;;5058328;28;20649;-84
2022/04/11 01:01:29;;;;;;;3.03;2.47;;;;;10.90;101716.00;;;;5056752;28;20768;-85
2022/04/11 01:03:58;;;;;;;5.75;2.47;;;;;10.90;101717.00;;;;5059772;28;20206;-84
2022/04/11 01:06:26;;;;;;;4.90;2.65;;;;;10.90;101718.00;;;;5057677;28;20199;-84
2022/04/11 01:08:54;;;;;;;5.20;2.50;;;;;10.90;101713.00;;;;5056471;28;20695;-84
2022/04/11 01:11:21;;;;;;;3.83;2.58;;;;;10.90;101712.00;;;;5055265;28;20195;-83
2022/04/11 01:13:50;;;;;;;2.60;2.05;;;;;10.90;101717.00;;;;5058354;28;20203;-84
2022/04/11 01:16:28;;;;;;;4.00;2.72;;;;;10.80;101718.00;;;;5059493;28;20253;-83
2022/04/11 01:18:55;;;;;;;2.92;2.42;;;;;10.90;101713.00;;;;5060200;28;20218;-84
2022/04/11 01:21:22;;;;;;;5.07;2.80;;;;;10.90;101718.00;;;;5059683;28;20200;-83
2022/04/11 01:23:51;;;;;;;3.80;2.47;;;;;10.90;101722.00;;;;5060568;28;20215;-84
2022/04/11 01:26:19;;;;;;;3.40;2.67;;;;;10.90;101716.00;;;;5060477;28;20614;-84
2022/04/11 01:28:48;;;;;;;3.03;2.70;;;;;10.90;101719.00;;;;5061530;28;20195;-83
2022/04/11 01:31:17;;;;;;;3.35;2.40;;;;;10.90;101718.00;;;;5061077;28;20252;-84
2022/04/11 01:33:44;;;;;;;3.03;2.05;;;;;10.90;101717.00;;;;5061742;28;20199;-84
2022/04/11 01:36:11;;;;;;;3.38;2.45;;;;;10.90;101720.00;;;;5061953;28;20199;-84
2022/04/11 01:38:39;;;;;;;2.45;2.08;;;;;10.90;101711.00;;;;5059879;28;20203;-84
2022/04/11 01:41:07;;;;;;;2.75;2.03;;;;;10.90;101715.00;;;;5057018;28;20196;-84
2022/04/11 01:43:34;;;;;;;2.72;2.13;;;;;10.90;101718.00;;;;5056954;28;21071;-84
2022/04/11 01:46:02;;;;;;;3.67;2.40;;;;;10.90;101717.00;;;;5062626;28;20207;-83
2022/04/11 01:48:29;;;;;;;9.18;3.50;;;;;10.90;101711.00;;;;5060329;28;20203;-84
2022/04/11 01:50:56;;;;;;;2.33;1.92;;;;;10.90;101713.00;;;;5063308;28;20194;-84
2022/04/11 01:53:23;;;;;;;3.15;1.90;;;;;11.00;101716.00;;;;5060034;28;20889;-83
2022/04/11 01:55:51;;;;;;;2.97;2.10;;;;;11.00;101717.00;;;;5059649;28;20191;-84
2022/04/11 01:58:19;;;;;;;2.92;2.33;;;;;10.90;101718.00;;;;5061059;28;20199;-84
2022/04/11 02:00:47;;;;;;;3.53;2.58;;;;;11.00;101709.00;;;;5061820;28;20199;-84
2022/04/11 02:03:14;;;;;;;4.68;2.33;;;;;11.00;101710.00;;;;5060854;28;20235;-83
2022/04/11 02:05:42;;;;;;;2.42;1.85;;;;;11.00;101707.00;;;;5061143;28;20270;-83
2022/04/11 02:08:11;;;;;;;3.50;2.50;;;;;11.00;101712.00;;;;5063209;28;20256;-84
2022/04/11 02:10:39;;;;;;;3.88;2.40;;;;;11.00;101710.00;;;;5060174;28;20573;-84
2022/04/11 02:13:07;;;;;;;2.63;2.00;;;;;11.00;101698.00;;;;5059943;28;20756;-83
2022/04/11 02:15:36;;;;;;;2.83;1.95;;;;;10.90;101704.00;;;;5058929;28;20202;-83
2022/04/11 02:18:03;;;;;;;2.35;2.03;;;;;10.90;101700.00;;;;5061449;28;20212;-83
2022/04/11 02:20:30;;;;;;;6.07;2.42;;;;;11.00;101701.00;;;;5059264;28;20202;-83
2022/04/11 02:23:00;;;;;;;4.97;2.67;;;;;10.90;101701.00;;;;5061479;28;20313;-83
2022/04/11 02:25:28;;;;;;;3.22;2.25;;;;;10.90;101704.00;;;;5058469;28;20199;-83
2022/04/11 02:27:57;;;;;;;4.20;2.63;;;;;10.90;101707.00;;;;5059704;28;20672;-84
2022/04/11 02:30:26;;;;;;;2.70;2.13;;;;;10.90;101705.00;;;;5060975;28;20264;-83
2022/04/11 02:32:55;;;;;;;3.80;2.20;;;;;10.90;101705.00;;;;5060705;28;20202;-83
2022/04/11 02:35:23;;;;;;;2.55;1.92;;;;;10.90;101708.00;;;;5061876;28;20225;-83
2022/04/11 02:37:51;;;;;;;2.50;1.90;;;;;10.90;101695.00;;;;5061635;28;20197;-83
2022/04/11 02:40:19;;;;;;;2.88;1.77;;;;;10.90;101703.00;;;;5057106;28;20195;-82
2022/04/11 02:42:47;;;;;;;3.42;2.47;;;;;10.80;101700.00;;;;5067292;28;20227;-83
2022/04/11 02:45:17;;;;;;;3.80;2.67;;;;;10.80;101700.00;;;;5059379;28;20194;-83
2022/04/11 02:47:48;;;;;;;2.53;2.20;;;;;10.80;101700.00;;;;5056783;28;20197;-84
2022/04/11 02:50:17;;;;;;;3.33;2.65;;;;;10.80;101701.00;;;;5058706;28;20207;-83
2022/04/11 02:52:44;;;;;;;2.58;2.17;;;;;10.80;101701.00;;;;5061195;28;20202;-83
2022/04/11 02:55:11;;;;;;;3.58;2.28;;;;;10.80;101704.00;;;;5061203;28;20225;-83
2022/04/11 02:57:39;;;;;;;2.70;2.10;;;;;10.70;101691.00;;;;5059022;28;20206;-84
2022/04/11 03:00:08;;;;;;;4.75;2.17;;;;;10.70;101697.00;;;;5060012;28;20202;-84
2022/04/11 03:02:36;;;;;;;3.05;2.75;;;;;10.70;101702.00;;;;5059006;28;20223;-83
2022/04/11 03:05:03;;;;;;;2.90;2.60;;;;;10.70;101692.00;;;;5058315;28;20662;-84
2022/04/11 03:07:32;;;;;;;3.25;2.35;;;;;10.60;101694.00;;;;5059913;28;20237;-83
2022/04/11 03:10:00;;;;;;;4.47;2.90;;;;;10.60;101693.00;;;;5065498;28;20211;-84
2022/04/11 03:12:27;;;;;;;3.58;2.78;;;;;10.60;101701.00;;;;5062427;28;20277;-84
2022/04/11 03:14:54;;;;;;;4.68;2.75;;;;;10.50;101699.00;;;;5060451;28;20214;-83
2022/04/11 03:17:22;;;;;;;3.50;2.70;;;;;10.50;101693.00;;;;5059690;28;20195;-83
2022/04/11 03:19:49;;;;;;;3.28;2.97;;;;;10.50;101691.00;;;;5059676;28;20199;-83
2022/04/11 03:22:16;;;;;;;4.50;3.40;;;;;10.50;101686.00;;;;5059254;28;20234;-83
2022/04/11 03:24:45;;;;;;;3.50;2.70;;;;;10.40;101685.00;;;;5058154;28;20222;-83
2022/04/11 03:27:12;;;;;;;4.40;3.33;;;;;10.40;101688.00;;;;5059780;28;20191;-83
2022/04/11 03:29:39;;;;;;;4.15;2.97;;;;;10.40;101685.00;;;;5058947;28;20669;-84
2022/04/11 03:32:08;;;;;;;6.03;3.45;;;;;10.30;101685.00;;;;5059001;28;20196;-84
2022/04/11 03:34:35;;;;;;;7.00;3.95;;;;;10.40;101681.00;;;;5059280;28;21061;-83
2022/04/11 03:37:02;;;;;;;4.72;3.30;;;;;10.30;101679.00;;;;5059863;28;20218;-84
2022/04/11 03:39:29;;;;;;;5.65;3.83;;;;;10.30;101681.00;;;;5064071;28;20194;-84
2022/04/11 03:41:58;;;;;;;5.22;3.67;;;;;10.30;101686.00;;;;5057074;28;20199;-84
2022/04/11 03:44:25;;;;;;;4.03;3.08;;;;;10.30;101690.00;;;;5051720;28;20696;-83
2022/04/11 03:46:52;;;;;;;3.97;3.03;;;;;10.20;101684.00;;;;5058223;28;20198;-83
2022/04/11 03:49:20;;;;;;;5.05;3.20;;;;;10.20;101688.00;;;;5059258;28;20749;-83
2022/04/11 03:51:47;;;;;;;4.22;3.35;;;;;10.20;101679.00;;;;5061467;28;20199;-84
2022/04/11 03:54:14;;;;;;;4.70;3.08;;;;;10.20;101679.00;;;;5058301;28;21575;-84
2022/04/11 03:56:41;;;;;;;4.80;3.40;;;;;10.20;101680.00;;;;5060146;28;20207;-84
2022/04/11 03:59:10;;;;;;;4.63;3.60;;;;;10.20;101677.00;;;;5059540;28;20281;-84
2022/04/11 04:01:37;;;;;;;4.13;3.42;;;;;10.20;101679.00;;;;5057255;28;20195;-84
2022/04/11 04:04:05;;;;;;;5.22;3.50;;;;;10.10;101677.00;;;;5056782;28;20225;-84
2022/04/11 04:06:32;;;;;;;4.30;3.40;;;;;10.10;101678.00;;;;5067377;28;20206;-84
2022/04/11 04:08:59;;;;;;;5.03;3.15;;;;;10.10;101674.00;;;;5060356;28;20195;-84
2022/04/11 04:11:26;;;;;;;4.53;3.15;;;;;10.10;101677.00;;;;5052695;28;20191;-84
2022/04/11 04:13:53;;;;;;;4.78;3.33;;;;;10.10;101677.00;;;;5055963;28;20210;-84
2022/04/11 04:16:22;;;;;;;6.82;4.00;;;;;10.00;101675.00;;;;5057631;28;20195;-83
2022/04/11 04:18:49;;;;;;;4.60;3.60;;;;;10.00;101675.00;;;;5059655;28;20199;-83
2022/04/11 04:21:18;;;;;;;4.47;3.42;;;;;10.00;101674.00;;;;5054877;28;20224;-83
2022/04/11 04:23:46;;;;;;;4.07;3.15;;;;;10.10;101673.00;;;;5050620;28;20305;-83
2022/04/11 04:26:13;;;;;;;5.50;3.65;;;;;10.00;101675.00;;;;5057865;28;20206;-83
2022/04/11 04:28:40;;;;;;;3.95;3.40;;;;;10.00;101673.00;;;;5060516;28;20210;-83
2022/04/11 04:31:07;;;;;;;3.75;3.25;;;;;10.00;101675.00;;;;5059436;28;20679;-83
2022/04/11 04:33:36;;;;;;;4.60;3.75;;;;;10.00;101674.00;;;;5060525;28;20206;-84
2022/04/11 04:36:03;;;;;;;4.30;3.47;;;;;10.10;101675.00;;;;5056336;28;20228;-83
2022/04/11 04:38:31;;;;;;;5.45;3.60;;;;;10.10;101674.00;;;;5059863;28;20206;-83
2022/04/11 04:40:58;;;;;;;4.80;3.72;;;;;10.10;101672.00;;;;5059267;28;20194;-83
2022/04/11 04:43:26;;;;;;;4.65;3.78;;;;;10.10;101663.00;;;;5064568;28;20313;-83
2022/04/11 04:45:53;;;;;;;4.97;3.47;;;;;10.10;101669.00;;;;5060104;28;20195;-84
2022/04/11 04:48:20;;;;;;;4.78;3.70;;;;;10.20;101663.00;;;;5057507;28;20202;-83
2022/04/11 04:50:49;;;;;;;5.63;3.88;;;;;10.20;101658.00;;;;5062500;28;20202;-83
2022/04/11 04:53:16;;;;;;;5.38;3.75;;;;;10.20;101656.00;;;;5058079;28;20203;-83
2022/04/11 04:55:43;;;;;;;3.58;3.08;;;;;10.20;101654.00;;;;5065835;28;20202;-83
2022/04/11 04:58:10;;;;;;;4.72;3.75;;;;;10.30;101651.00;;;;5063820;28;20583;-84
2022/04/11 05:00:38;;;;;;;3.70;3.38;;;;;10.30;101663.00;;;;5065196;28;20643;-84
2022/04/11 05:03:05;;;;;;;4.50;3.58;;;;;10.30;101652.00;;;;5064397;28;20446;-83
2022/04/11 05:05:32;;;;;;;6.22;4.78;;;;;10.30;101663.00;;;;5056893;28;20200;-84
2022/04/11 05:08:01;;;;;;;5.38;4.18;;;;;10.30;101658.00;;;;5068023;28;20670;-83
2022/04/11 05:10:28;;;;;;;5.68;4.13;;;;;10.40;101660.00;;;;5066734;28;20195;-82
2022/04/11 05:12:55;;;;;;;4.97;3.90;;;;;10.40;101661.00;;;;5055734;28;20202;-83
2022/04/11 05:15:23;;;;;;;7.57;4.30;;;;;10.40;101656.00;;;;5052559;28;20697;-82
2022/04/11 05:17:50;;;;;;;5.40;4.47;;;;;10.40;101656.00;;;;5059129;28;20301;-81
2022/04/11 05:20:19;;;;;;;5.28;4.35;;;;;10.40;101651.00;;;;5066911;28;20696;-82
2022/04/11 05:22:46;;;;;;;4.63;3.95;;;;;10.40;101660.00;;;;5069664;28;20706;-82
2022/04/11 05:25:15;;;;;;;4.80;3.65;;;;;10.40;101659.00;;;;5062728;28;20222;-81
2022/04/11 05:27:42;;;;;;;5.43;4.32;;;;;10.40;101661.00;;;;5063817;28;20198;-82
2022/04/11 05:30:10;;;;;;;4.50;4.10;;;;;10.40;101657.00;;;;5058416;28;20198;-83
2022/04/11 05:32:37;;;;;;;4.68;3.55;;;;;10.40;101653.00;;;;5059833;28;20196;-82
2022/04/11 05:35:05;;;;;;;5.35;4.25;;;;;10.40;101659.00;;;;5083905;28;20284;-82
2022/04/11 05:37:32;;;;;;;5.20;4.30;;;;;10.40;101658.00;;;;5070738;28;20576;-81
2022/04/11 05:40:00;;;;;;;6.13;4.40;;;;;10.40;101660.00;;;;5069698;28;20206;-83
2022/04/11 05:42:28;;;;;;;5.45;4.60;;;;;10.40;101661.00;;;;5063629;28;20199;-83
2022/04/11 05:44:55;;;;;;;5.53;4.45;;;;;10.40;101651.00;;;;5062646;28;22359;-82
2022/04/11 05:47:23;;;;;;;4.50;3.97;;;;;10.40;101651.00;;;;5069187;28;20202;-82
2022/04/11 05:49:50;;;;;;;4.35;3.70;;;;;10.40;101661.00;;;;5063808;28;20685;-81
2022/04/11 05:52:18;;;;;;;6.03;4.80;;;;;10.50;101662.00;;;;5052818;28;20196;-82
2022/04/11 05:54:46;;;;;;;5.63;4.95;;;;;10.50;101650.00;;;;5065999;28;20225;-82
2022/04/11 05:57:13;;;;;;;4.70;4.15;;;;;10.50;101658.00;;;;5069278;28;20206;-83
2022/04/11 05:59:42;;;;;;;5.00;4.00;;;;;10.50;101655.00;;;;5072110;28;20198;-81
2022/04/11 06:02:10;;;;;;;5.25;4.45;;;;;10.50;101659.00;;;;5067140;28;20199;-82
2022/04/11 06:04:37;;;;;;;5.05;3.88;;;;;10.60;101655.00;;;;5056181;28;20235;-82
2022/04/11 06:07:05;;;;;;;5.93;4.95;;;;;10.60;101660.00;;;;5052456;28;20290;-83
2022/04/11 06:09:32;;;;;;;5.43;4.85;;;;;10.70;101662.00;;;;5054922;28;20691;-83
2022/04/11 06:12:00;;;;;;;4.82;4.30;;;;;10.80;101671.00;;;;5062853;28;20198;-82
2022/04/11 06:14:27;;;;;;;5.10;4.60;;;;;10.80;101673.00;;;;5059112;28;20192;-82
2022/04/11 06:16:55;;;;;;;5.82;5.22;;;;;10.90;101672.00;;;;5049462;28;20192;-83
2022/04/11 06:19:23;;;;;;;5.43;4.47;;;;;11.00;101670.00;;;;5050153;28;20253;-83
2022/04/11 06:21:50;;;;;;;5.53;4.40;;;;;11.10;101671.00;;;;5050403;28;20191;-82
2022/04/11 06:24:17;;;;;;;5.72;5.13;;;;;11.20;101674.00;;;;5050952;28;20235;-83
2022/04/11 06:26:45;;;;;;;6.55;5.13;;;;;11.30;101670.00;;;;5050652;28;20669;-83
2022/04/11 06:29:12;;;;;;;8.23;5.50;;;;;11.30;101662.00;;;;5052741;28;20299;-83
2022/04/11 06:31:39;;;;;;;5.75;4.90;;;;;11.40;101675.00;;;;5069452;28;20260;-83
2022/04/11 06:34:08;;;;;;;5.35;4.85;;;;;11.50;101678.00;;;;5070823;28;20539;-82
2022/04/11 06:36:38;;;;;;;5.57;4.63;;;;;11.60;101678.00;;;;5069380;28;20199;-83
2022/04/11 06:39:05;;;;;;;5.68;4.60;;;;;11.70;101677.00;;;;5055140;28;20249;-83
2022/04/11 06:41:32;;;;;;;5.53;4.95;;;;;11.90;101675.00;;;;5053735;28;20199;-83
2022/04/11 06:44:00;;;;;;;5.25;4.75;;;;;12.00;101674.00;;;;5073031;28;20218;-83
2022/04/11 06:46:27;;;;;;;5.05;4.43;;;;;12.20;101672.00;;;;5065636;28;20187;-83
2022/04/11 06:48:54;;;;;;;5.13;4.63;;;;;12.40;101680.00;;;;5050788;28;20202;-83
2022/04/11 06:51:23;;;;;;;5.43;3.92;;;;;12.50;101664.00;;;;5048018;28;20654;-82
2022/04/11 06:53:50;;;;;;;4.18;3.78;;;;;12.60;101672.00;;;;5049713;28;20693;-82
2022/04/11 06:56:17;;;;;;;7.00;5.10;;;;;12.70;101675.00;;;;5067507;28;20203;-82
2022/04/11 06:58:44;;;;;;;6.35;4.97;;;;;12.80;101677.00;;;;5064978;28;20664;-83
2022/04/11 07:01:11;;;;;;;5.32;4.70;;;;;12.90;101678.00;;;;5067066;28;20203;-81
2022/04/11 07:03:39;;;;;;;6.05;4.82;;;;;13.00;101679.00;;;;5067077;28;20226;-81
2022/04/11 07:06:06;;;;;;;6.18;4.78;;;;;13.10;101679.00;;;;5051037;28;20263;-81
2022/04/11 07:08:34;;;;;;;5.50;4.20;;;;;13.20;101678.00;;;;5052359;28;20618;-81
2022/04/11 07:11:02;;;;;;;5.03;4.53;;;;;13.30;101682.00;;;;5050433;28;20199;-81
2022/04/11 07:13:29;;;;;;;5.18;4.68;;;;;13.40;101677.00;;;;5061414;28;20206;-82
2022/04/11 07:15:56;;;;;;;5.70;4.43;;;;;13.50;101671.00;;;;5049396;28;20665;-82
2022/04/11 07:18:27;;;;;;;5.15;4.18;;;;;13.60;101682.00;;;;5057602;28;20676;-82
2022/04/11 07:20:54;;;;;;;6.82;4.10;;;;;13.80;101676.00;;;;5066149;28;20290;-81
2022/04/11 07:23:24;;;;;;;4.68;4.18;;;;;13.90;101678.00;;;;5051021;28;20223;-81
2022/04/11 07:25:53;;;;;;;4.30;3.88;;;;;14.00;101673.00;;;;5063824;28;20230;-81
2022/04/11 07:28:20;;;;;;;4.97;4.53;;;;;14.10;101671.00;;;;5051546;28;20576;-81
2022/04/11 07:30:48;;;;;;;5.18;4.05;;;;;14.20;101662.00;;;;5063991;28;20202;-82
2022/04/11 07:33:15;;;;;;;3.95;3.35;;;;;14.40;101660.00;;;;5053406;28;20206;-81
2022/04/11 07:35:42;;;;;;;6.13;4.18;;;;;14.50;101656.00;;;;5065733;28;20231;-81
2022/04/11 07:38:09;;;;;;;7.18;3.72;;;;;14.60;101652.00;;;;5065595;28;20187;-80
2022/04/11 07:40:37;;;;;;;5.75;3.92;;;;;14.70;101639.00;;;;5062382;28;20203;-80
2022/04/11 07:43:05;;;;;;;4.25;3.80;;;;;14.80;101650.00;;;;5052248;28;20203;-79
2022/04/11 07:45:32;;;;;;;5.15;4.15;;;;;14.90;101653.00;;;;5050797;28;20264;-79
2022/04/11 07:48:00;;;;;;;7.55;4.05;;;;;15.00;101646.00;;;;5053282;28;20202;-80
2022/04/11 07:50:27;;;;;;;5.70;4.03;;;;;15.10;101649.00;;;;5067638;28;20248;-80
2022/04/11 07:52:55;;;;;;;4.78;3.90;;;;;15.20;101644.00;;;;5068659;28;20677;-79
2022/04/11 07:55:24;;;;;;;4.43;4.03;;;;;15.30;101634.00;;;;5064516;28;20256;-79
2022/04/11 07:57:51;;;;;;;4.90;3.72;;;;;15.40;101641.00;;;;5050316;28;20200;-79
2022/04/11 08:00:20;;;;;;;4.05;3.65;;;;;15.40;101642.00;;;;5059513;28;20207;-80
2022/04/11 08:02:51;;;;;;;4.40;3.63;;;;;15.50;101642.00;;;;5068620;28;20199;-79
2022/04/11 08:05:20;;;;;;;5.07;3.67;;;;;15.60;101639.00;;;;5068168;28;20693;-80
2022/04/11 08:07:47;;;;;;;3.97;2.85;;;;;15.70;101639.00;;;;5066017;28;20228;-80
2022/04/11 08:10:16;;;;;;;3.78;3.05;;;;;15.80;101638.00;;;;5049360;28;20206;-80
2022/04/11 08:12:54;;;;;;;4.20;3.35;;;;;15.80;101632.00;;;;5063115;28;20206;-80
2022/04/11 08:15:24;;;;;;;3.20;2.85;;;;;15.90;101636.00;;;;5068631;28;20206;-80
2022/04/11 08:17:51;;;;;;;7.65;3.22;;;;;16.00;101645.00;;;;5059319;28;20249;-80
2022/04/11 08:20:19;;;;;;;5.47;3.22;;;;;16.10;101633.00;;;;5049448;28;20203;-80
2022/04/11 08:22:46;;;;;;;3.85;3.42;;;;;16.20;101636.00;;;;5057331;28;20209;-79
2022/04/11 08:27:55;;;;;;;7.30;3.40;;;;;16.40;101625.00;;;;4986824;28;20671;-79
2022/04/11 08:30:23;;;;;;;4.38;2.80;;;;;16.50;101631.00;;;;5005910;28;20212;-79
2022/04/11 08:32:52;;;;;;;4.07;3.10;;;;;16.60;101620.00;;;;5001465;28;20668;-80
2022/04/11 08:35:21;;;;;;;6.20;3.17;;;;;16.70;101626.00;;;;4992777;28;20618;-80
2022/04/11 08:37:49;;;;;;;6.35;3.58;;;;;16.80;101621.00;;;;5006006;28;20706;-80
2022/04/11 08:40:19;;;;;;;4.32;3.72;;;;;16.80;101615.00;;;;5007280;28;20239;-79
2022/04/11 08:42:49;;;;;;;3.92;3.40;;;;;17.00;101612.00;;;;5006178;28;21020;-79
2022/04/11 08:45:18;;;;;;;4.53;3.05;;;;;17.10;101619.00;;;;5005197;28;20355;-80
2022/04/11 08:47:48;;;;;;;3.50;3.15;;;;;17.10;101617.00;;;;5005592;28;20201;-77
2022/04/11 08:50:15;;;;;;;4.35;3.00;;;;;17.20;101612.00;;;;5005753;28;20284;-76
2022/04/11 08:52:43;;;;;;;3.97;2.78;;;;;17.30;101617.00;;;;4999433;28;20194;-77
2022/04/11 08:55:11;;;;;;;4.53;2.92;;;;;17.40;101618.00;;;;5000512;28;20205;-77
2022/04/11 08:57:39;;;;;;;3.20;2.58;;;;;17.50;101626.00;;;;5003916;28;20208;-77
2022/04/11 09:00:19;;;;;;;3.72;2.95;;;;;17.60;101621.00;;;;5005269;28;20726;-77
2022/04/11 09:02:48;;;;;;;3.67;3.28;;;;;17.70;101620.00;;;;5005879;28;20215;-77
2022/04/11 09:05:22;;;;;;;3.88;3.55;;;;;17.80;101626.00;;;;5021589;28;20219;-77
2022/04/11 09:07:51;;;;;;;3.25;2.95;;;;;18.00;101619.00;;;;5062423;28;20195;-77
2022/04/11 09:10:22;;;;;;;3.95;2.90;;;;;18.00;101621.00;;;;5067566;28;20191;-79
2022/04/11 09:12:51;;;;;;;4.35;3.42;;;;;18.20;101622.00;;;;5054542;28;20585;-78
2022/04/11 09:15:19;;;;;;;4.35;3.42;;;;;18.30;101620.00;;;;5053450;28;20191;-79
2022/04/11 09:17:48;;;;;;;3.08;2.78;;;;;18.40;101619.00;;;;5051476;28;20215;-78
2022/04/11 09:20:17;;;;;;;3.28;2.70;;;;;18.50;101615.00;;;;5067961;28;20203;-78
2022/04/11 09:22:45;;;;;;;5.15;2.80;;;;;18.50;101620.00;;;;5060682;28;20199;-79
2022/04/11 09:25:14;;;;;;;4.35;3.13;;;;;18.60;101623.00;;;;5063384;28;20231;-79
2022/04/11 09:27:42;;;;;;;3.33;2.92;;;;;18.70;101618.00;;;;5058437;28;20249;-79
2022/04/11 09:30:25;;;;;;;2.83;2.30;;;;;18.70;101619.00;;;;5067100;28;20201;-79
2022/04/11 09:33:00;;;;;;;3.65;2.50;;;;;18.80;101614.00;;;;5057518;28;20193;-79
2022/04/11 09:35:28;;;;;;;4.68;3.13;;;;;18.90;101608.00;;;;5054982;28;21121;-79
2022/04/11 09:38:13;;;;;;;4.13;3.05;;;;;18.90;101612.00;;;;5069574;28;20203;-79
2022/04/11 09:40:43;;;;;;;3.53;3.20;;;;;19.00;101608.00;;;;5060387;28;20290;-80
2022/04/11 09:43:12;;;;;;;4.50;2.88;;;;;19.10;101596.00;;;;5057540;28;20196;-80
2022/04/11 09:45:44;;;;;;;3.88;2.67;;;;;19.20;101595.00;;;;5065341;28;20358;-79
2022/04/11 09:48:16;;;;;;;5.72;2.53;;;;;19.30;101590.00;;;;5051129;28;21081;-77
2022/04/11 09:50:43;;;;;;;3.13;2.40;;;;;19.40;101589.00;;;;5054103;28;20200;-77
2022/04/11 09:53:13;;;;;;;3.67;3.00;;;;;19.40;101586.00;;;;5061816;28;20187;-77
2022/04/11 09:55:41;;;;;;;3.17;2.50;;;;;19.60;101587.00;;;;5061151;28;20198;-77
2022/04/11 09:58:09;;;;;;;5.60;2.67;;;;;19.60;101594.00;;;;5058599;28;20241;-78
2022/04/11 10:00:38;;;;;;;5.38;2.83;;;;;19.70;101592.00;;;;5053755;28;20202;-77
2022/04/11 10:03:06;;;;;;;3.08;2.60;;;;;19.80;101580.00;;;;5070974;28;20238;-77
2022/04/11 10:05:36;;;;;;;3.05;2.58;;;;;19.90;101580.00;;;;5067382;28;20261;-77
2022/04/11 10:08:05;;;;;;;4.05;2.40;;;;;19.90;101583.00;;;;5070144;28;20198;-77
2022/04/11 10:10:34;;;;;;;4.60;2.60;;;;;20.00;101581.00;;;;5070344;28;20595;-78
2022/04/11 10:13:02;;;;;;;3.47;2.28;;;;;20.00;101584.00;;;;5057177;28;20231;-78
2022/04/11 10:15:31;;;;;;;7.20;2.65;;;;;20.10;101577.00;;;;5063528;28;20199;-78
2022/04/11 10:17:58;;;;;;;6.80;2.22;;;;;20.10;101576.00;;;;5061088;28;20196;-77
2022/04/11 10:20:27;;;;;;;3.88;2.30;;;;;20.20;101584.00;;;;5049698;28;20286;-78
2022/04/11 10:23:17;;;;;;;5.45;2.25;;;;;20.20;101581.00;;;;5055212;28;20207;-77
2022/04/11 10:25:47;;;;;;;2.75;2.38;;;;;20.30;101577.00;;;;5057945;28;20233;-77
2022/04/11 10:28:19;;;;;;;3.22;2.17;;;;;20.40;101567.00;;;;5064614;28;20195;-77
2022/04/11 10:31:04;;;;;;;3.45;2.30;;;;;20.40;101567.00;;;;5065886;28;20794;-78
2022/04/11 10:33:46;;;;;;;3.53;2.30;;;;;20.40;101573.00;;;;5062208;28;20206;-78
2022/04/11 10:36:32;;;;;;;4.53;2.58;;;;;20.50;101565.00;;;;5069899;28;20705;-78
2022/04/11 10:39:24;;;;;;;4.63;3.00;;;;;20.50;101573.00;;;;5067937;28;20195;-78
2022/04/11 10:42:10;;;;;;;6.40;2.78;;;;;20.60;101573.00;;;;5059970;28;20226;-78
2022/04/11 10:44:39;;;;;;;3.17;2.53;;;;;20.70;101564.00;;;;5057220;28;20219;-78
2022/04/11 10:47:36;;;;;;;5.03;3.05;;;;;20.70;101562.00;;;;5059579;28;20272;-77
2022/04/11 10:50:24;;;;;;;3.45;2.97;;;;;20.80;101559.00;;;;5049896;28;20196;-78
2022/04/11 10:53:15;;;;;;;4.60;3.42;;;;;20.80;101565.00;;;;5050105;28;20206;-78
2022/04/11 10:56:03;;;;;;;4.68;3.35;;;;;20.90;101562.00;;;;5068121;28;20191;-78
2022/04/11 10:58:47;;;;;;;4.68;3.28;;;;;21.00;101558.00;;;;5067429;28;20191;-78
2022/04/11 11:01:15;;;;;;;5.45;3.30;;;;;21.10;101550.00;;;;5056098;28;20203;-78
2022/04/11 11:03:58;;;;;;;7.63;3.70;;;;;21.10;101550.00;;;;5069165;28;20202;-78
2022/04/11 11:06:26;;;;;;;4.43;2.83;;;;;21.20;101544.00;;;;5065371;28;20302;-79
2022/04/11 11:08:53;;;;;;;3.17;2.88;;;;;21.30;101545.00;;;;5049908;28;20268;-79
2022/04/11 11:11:24;;;;;;;5.10;3.38;;;;;21.30;101533.00;;;;5048513;28;20985;-79
2022/04/11 11:13:53;;;;;;;3.20;2.60;;;;;21.40;101538.00;;;;5056479;28;20584;-79
2022/04/11 11:16:37;;;;;;;3.30;2.38;;;;;21.40;101528.00;;;;5068736;28;20199;-78
2022/04/11 11:19:17;;;;;;;4.32;2.92;;;;;21.40;101525.00;;;;5066432;28;20571;-78
2022/04/11 11:22:08;;;;;;;3.58;2.58;;;;;21.40;101517.00;;;;5069149;28;20191;-79
2022/04/11 11:24:35;;;;;;;4.53;2.50;;;;;21.60;101510.00;;;;5066959;28;20739;-79
2022/04/11 11:27:06;;;;;;;2.58;2.13;;;;;21.60;101504.00;;;;5063722;28;20203;-79
2022/04/11 11:29:40;;;;;;;2.25;1.92;;;;;21.70;101509.00;;;;5054000;28;20231;-79
2022/04/11 11:32:09;;;;;;;4.95;2.10;;;;;21.70;101494.00;;;;5048414;28;20722;-79
2022/04/11 11:34:38;;;;;;;2.85;2.00;;;;;21.70;101493.00;;;;5048645;28;20273;-79
2022/04/11 11:37:07;;;;;;;3.83;2.47;;;;;21.80;101481.00;;;;5066876;28;20400;-80
2022/04/11 11:39:36;;;;;;;5.72;1.92;;;;;21.80;101478.00;;;;5067223;28;20195;-78
2022/04/11 11:42:07;;;;;;;2.45;2.15;;;;;21.90;101472.00;;;;5064615;28;20198;-78
2022/04/11 11:44:43;;;;;;;2.28;1.98;;;;;21.90;101475.00;;;;5067917;28;20199;-79
2022/04/11 11:47:10;;;;;;;3.38;2.38;;;;;22.00;101471.00;;;;5068431;28;20214;-79
2022/04/11 11:49:42;;;;;;;2.63;2.20;;;;;22.00;101464.00;;;;5056244;28;20225;-79
2022/04/11 11:52:13;;;;;;;4.75;2.42;;;;;22.00;101460.00;;;;5063569;28;20282;-79
2022/04/11 11:54:42;;;;;;;3.17;2.17;;;;;22.10;101456.00;;;;5055478;28;20278;-79
2022/04/11 11:57:18;;;;;;;3.53;2.22;;;;;22.10;101455.00;;;;5053605;28;20188;-78
2022/04/11 11:59:51;;;;;;;4.13;1.95;;;;;22.10;101457.00;;;;5052565;28;20190;-78
2022/04/11 12:05:04;;;;;;;4.03;2.78;;;;;22.20;101442.00;;;;5048320;28;20667;-79
2022/04/11 12:07:31;;;;;;;3.33;2.08;;;;;22.30;101426.00;;;;5055617;28;20207;-79
2022/04/11 12:09:59;;;;;;;3.65;2.65;;;;;22.30;101441.00;;;;5060109;28;20711;-78
2022/04/11 12:12:27;;;;;;;2.63;2.33;;;;;22.30;101436.00;;;;5056828;28;20212;-79
2022/04/11 12:15:02;;;;;;;4.63;2.38;;;;;22.40;101444.00;;;;5059654;28;20214;-79
2022/04/11 12:17:34;;;;;;;4.03;2.45;;;;;22.40;101443.00;;;;5051333;28;20206;-79
2022/04/11 12:20:09;;;;;;;4.78;2.40;;;;;22.40;101439.00;;;;5067022;28;20222;-79
2022/04/11 12:22:36;;;;;;;5.68;2.47;;;;;22.60;101427.00;;;;5063234;28;20626;-80
2022/04/11 12:25:24;;;;;;;3.92;2.50;;;;;22.50;101429.00;;;;5060534;28;20701;-80